Time;durP1;ratioP1;P1;durP2;ratioP2;P2;SDS_P1;SDS_P2;PMS_P1;PMS_P2;Temp;Humidity;BMP_temperature;BMP_pressure;BME280_temperature;BME280_humidity;BME280_pressure;Samples;Min_cycle;Max_cycle;Signal;HPM_P1;HPM_P2
2023/01/31 00:01:32;;;;;;;12.88;8.18;;;19.80;34.00;;;;;;5053036;28;20049;-68
2023/01/31 00:04:04;;;;;;;11.95;7.78;;;19.80;34.00;;;;;;5052628;28;20124;-67
2023/01/31 00:06:35;;;;;;;10.00;6.93;;;19.80;34.50;;;;;;5053251;28;20067;-68
2023/01/31 00:09:05;;;;;;;10.90;7.60;;;19.80;34.00;;;;;;5052795;28;20094;-68
2023/01/31 00:11:33;;;;;;;10.90;7.53;;;19.80;34.00;;;;;;5052672;28;20059;-68
2023/01/31 00:14:03;;;;;;;9.18;7.28;;;19.80;34.00;;;;;;5052780;28;20055;-68
2023/01/31 00:16:30;;;;;;;11.55;7.40;;;19.80;34.00;;;;;;5051624;28;20507;-68
2023/01/31 00:18:57;;;;;;;9.82;7.28;;;19.80;34.00;;;;;;5052474;28;20482;-68
2023/01/31 00:21:27;;;;;;;9.98;7.57;;;19.80;34.00;;;;;;5057225;28;20128;-68
2023/01/31 00:23:55;;;;;;;8.13;6.67;;;19.70;33.90;;;;;;5056975;28;20409;-68
2023/01/31 00:26:25;;;;;;;10.93;6.97;;;19.80;33.90;;;;;;5057044;28;20051;-68
2023/01/31 00:28:54;;;;;;;10.10;6.93;;;19.70;33.90;;;;;;5056683;28;20071;-68
2023/01/31 00:31:23;;;;;;;10.65;7.05;;;19.70;33.90;;;;;;5055768;28;20373;-68
2023/01/31 00:33:52;;;;;;;11.38;7.13;;;19.70;33.90;;;;;;5055949;28;20129;-68
2023/01/31 00:36:23;;;;;;;10.23;6.93;;;19.70;33.90;;;;;;5056205;28;20102;-68
2023/01/31 00:38:52;;;;;;;8.25;6.10;;;19.70;33.90;;;;;;5056460;28;20049;-68
2023/01/31 00:41:21;;;;;;;8.75;6.95;;;19.70;33.90;;;;;;5057111;28;20049;-68
2023/01/31 00:43:49;;;;;;;6.68;5.63;;;19.70;33.90;;;;;;5056165;28;20045;-68
2023/01/31 00:46:19;;;;;;;9.27;6.22;;;19.70;33.90;;;;;;5056430;28;20052;-68
2023/01/31 00:48:46;;;;;;;8.77;6.47;;;19.70;33.90;;;;;;5056279;28;20476;-68
2023/01/31 00:51:14;;;;;;;9.32;6.35;;;19.70;33.90;;;;;;5056266;28;20052;-68
2023/01/31 00:53:41;;;;;;;8.80;6.70;;;19.70;33.90;;;;;;5056670;28;20045;-68
2023/01/31 00:56:14;;;;;;;6.97;5.63;;;19.70;33.90;;;;;;5056150;28;20067;-68
2023/01/31 00:58:41;;;;;;;10.75;6.65;;;19.70;33.90;;;;;;5055802;28;20060;-68
2023/01/31 01:01:14;;;;;;;9.55;6.82;;;19.70;33.90;;;;;;5055991;28;20124;-67
2023/01/31 01:03:43;;;;;;;9.10;6.88;;;19.70;33.80;;;;;;5055592;28;20049;-68
2023/01/31 01:06:11;;;;;;;8.02;6.22;;;19.70;33.90;;;;;;5054966;28;20135;-68
2023/01/31 01:08:40;;;;;;;7.95;5.72;;;19.70;33.90;;;;;;5055881;28;20508;-68
2023/01/31 01:11:17;;;;;;;8.45;5.97;;;19.70;33.90;;;;;;5055595;28;20132;-68
2023/01/31 01:13:45;;;;;;;7.68;5.78;;;19.70;33.90;;;;;;5054326;28;20052;-68
2023/01/31 01:16:16;;;;;;;7.75;5.90;;;19.70;33.90;;;;;;5054631;28;20390;-68
2023/01/31 01:18:45;;;;;;;8.73;6.20;;;19.70;33.90;;;;;;5053852;28;20045;-68
2023/01/31 01:21:15;;;;;;;7.13;5.20;;;19.70;33.90;;;;;;5053858;28;20055;-68
2023/01/31 01:23:43;;;;;;;7.03;5.30;;;19.70;33.90;;;;;;5054350;28;20511;-68
2023/01/31 01:26:16;;;;;;;7.32;5.72;;;19.70;33.80;;;;;;5054034;28;20136;-68
2023/01/31 01:28:43;;;;;;;8.73;6.22;;;19.70;33.80;;;;;;5054628;28;20437;-68
2023/01/31 01:31:12;;;;;;;6.47;5.38;;;19.70;33.80;;;;;;5053968;28;20055;-67
2023/01/31 01:33:39;;;;;;;6.57;5.25;;;19.70;33.80;;;;;;5054282;28;20049;-68
2023/01/31 01:36:12;;;;;;;7.57;5.60;;;19.70;33.80;;;;;;5053096;28;20421;-68
2023/01/31 01:38:40;;;;;;;8.35;5.25;;;19.70;33.80;;;;;;5053420;28;20085;-68
2023/01/31 01:41:08;;;;;;;6.90;5.22;;;19.70;33.80;;;;;;5054535;28;20049;-68
2023/01/31 01:43:52;;;;;;;7.93;5.57;;;19.70;33.80;;;;;;5054064;28;20045;-69
2023/01/31 01:46:35;;;;;;;6.30;4.90;;;19.70;33.80;;;;;;5053836;28;20092;-67
2023/01/31 01:49:18;;;;;;;6.40;5.13;;;19.70;33.80;;;;;;5054305;28;20131;-68
2023/01/31 01:51:49;;;;;;;7.90;5.45;;;19.70;33.80;;;;;;5053857;28;20055;-68
2023/01/31 01:54:22;;;;;;;7.95;5.22;;;19.60;33.70;;;;;;5054088;28;20469;-68
2023/01/31 01:56:55;;;;;;;7.13;5.40;;;19.60;33.70;;;;;;5053605;28;20057;-68
2023/01/31 01:59:32;;;;;;;8.10;5.90;;;19.70;33.80;;;;;;5053617;28;20049;-68
2023/01/31 02:02:00;;;;;;;6.40;4.88;;;19.70;33.70;;;;;;5053230;28;20385;-68
2023/01/31 02:04:33;;;;;;;6.28;5.18;;;19.70;33.70;;;;;;5053731;28;20136;-68
2023/01/31 02:07:01;;;;;;;6.00;4.85;;;19.60;33.70;;;;;;5053940;28;20053;-68
2023/01/31 02:09:44;;;;;;;6.40;4.55;;;19.60;33.70;;;;;;5054012;28;20095;-68
2023/01/31 02:12:11;;;;;;;6.82;5.00;;;19.60;33.70;;;;;;5009947;28;1259129;-68
2023/01/31 02:14:40;;;;;;;6.78;4.90;;;19.60;33.70;;;;;;5054482;28;20049;-67
2023/01/31 02:17:16;;;;;;;7.20;5.28;;;19.60;33.70;;;;;;5054066;28;20496;-68
2023/01/31 02:20:10;;;;;;;7.90;5.25;;;19.60;33.70;;;;;;5054543;28;20079;-69
2023/01/31 02:23:17;;;;;;;5.78;4.57;;;19.60;33.70;;;;;;5053497;28;20131;-68
2023/01/31 02:26:24;;;;;;;6.18;4.85;;;19.60;33.70;;;;;;5054315;28;20141;-68
2023/01/31 02:29:30;;;;;;;7.63;5.22;;;19.60;33.70;;;;;;5053015;28;20057;-68
2023/01/31 02:32:37;;;;;;;6.65;5.32;;;19.60;33.70;;;;;;5054333;28;20408;-68
2023/01/31 02:35:22;;;;;;;6.35;4.38;;;19.60;33.70;;;;;;5053087;28;20378;-68
2023/01/31 02:38:07;;;;;;;6.57;4.70;;;19.60;33.70;;;;;;5054303;28;20382;-68
2023/01/31 02:40:49;;;;;;;6.30;4.85;;;19.60;33.70;;;;;;5053978;28;20544;-68
2023/01/31 02:47:01;;;;;;;5.65;4.28;;;19.60;33.70;;;;;;5054259;28;20041;-68
2023/01/31 02:49:47;;;;;;;5.63;4.57;;;19.60;33.70;;;;;;5053982;28;20045;-68
2023/01/31 02:52:30;;;;;;;6.20;4.35;;;19.60;33.70;;;;;;5054227;28;20053;-68
2023/01/31 02:58:00;;;;;;;5.65;4.50;;;19.60;33.70;;;;;;5054253;28;20076;-68
2023/01/31 03:00:32;;;;;;;5.18;4.45;;;19.60;33.70;;;;;;5053450;28;20049;-68
2023/01/31 03:02:59;;;;;;;6.72;5.07;;;19.60;33.70;;;;;;5053229;28;20048;-68
2023/01/31 03:05:26;;;;;;;6.03;4.32;;;19.60;33.70;;;;;;5053583;28;20041;-68
2023/01/31 03:07:56;;;;;;;5.50;4.47;;;19.60;33.70;;;;;;5053116;28;20045;-68
2023/01/31 03:10:55;;;;;;;7.40;4.15;;;19.60;33.70;;;;;;5053491;28;20055;-67
2023/01/31 03:14:01;;;;;;;6.15;4.35;;;19.50;33.70;;;;;;5052606;28;20049;-68
2023/01/31 03:19:29;;;;;;;4.95;3.78;;;19.60;33.70;;;;;;5053706;28;20092;-68
2023/01/31 03:22:10;;;;;;;6.70;4.90;;;19.50;33.60;;;;;;5053244;28;20140;-68
2023/01/31 03:24:39;;;;;;;6.18;4.13;;;19.50;33.60;;;;;;5052959;28;20067;-68
2023/01/31 03:27:06;;;;;;;5.43;4.18;;;19.60;33.70;;;;;;5053098;28;20389;-68
2023/01/31 03:29:37;;;;;;;4.97;3.75;;;19.60;33.70;;;;;;5053616;28;20382;-68
2023/01/31 03:32:22;;;;;;;7.05;4.68;;;19.60;33.70;;;;;;5052663;28;20478;-68
2023/01/31 03:34:50;;;;;;;5.35;4.00;;;19.60;33.70;;;;;;5051891;28;20052;-68
2023/01/31 03:37:43;;;;;;;4.80;3.80;;;19.60;33.70;;;;;;5053316;28;20044;-68
2023/01/31 03:40:20;;;;;;;4.82;3.35;;;19.60;33.70;;;;;;5052209;28;20128;-68
2023/01/31 03:43:02;;;;;;;4.07;3.47;;;19.60;33.70;;;;;;5053555;28;20055;-68
2023/01/31 03:45:41;;;;;;;5.38;3.90;;;19.60;33.70;;;;;;5051864;28;20132;-68
2023/01/31 03:48:13;;;;;;;5.25;4.00;;;19.60;33.70;;;;;;5053170;28;20049;-68
2023/01/31 03:50:46;;;;;;;5.28;3.95;;;19.60;33.60;;;;;;5051004;28;20076;-67
2023/01/31 03:53:35;;;;;;;5.80;3.90;;;19.60;33.60;;;;;;5052715;28;20045;-68
2023/01/31 03:56:33;;;;;;;5.18;3.75;;;19.60;33.60;;;;;;5052327;28;20045;-68
2023/01/31 03:59:07;;;;;;;4.68;3.72;;;19.60;33.60;;;;;;5052762;28;20053;-68
2023/01/31 04:01:38;;;;;;;5.00;4.07;;;19.60;33.60;;;;;;5052370;28;20052;-67
2023/01/31 04:04:14;;;;;;;6.28;4.03;;;19.50;33.50;;;;;;5052229;28;20052;-68
2023/01/31 04:06:42;;;;;;;5.88;3.70;;;19.50;33.50;;;;;;5052199;28;20419;-68
2023/01/31 04:09:09;;;;;;;4.68;3.67;;;19.50;33.50;;;;;;5052767;28;20049;-68
2023/01/31 04:11:39;;;;;;;5.10;4.03;;;19.50;33.50;;;;;;5051907;28;20045;-68
2023/01/31 04:14:07;;;;;;;5.40;3.70;;;19.50;33.50;;;;;;5051901;28;20059;-68
2023/01/31 04:16:34;;;;;;;5.03;3.55;;;19.50;33.50;;;;;;5052074;28;20298;-68
2023/01/31 04:19:01;;;;;;;4.00;3.40;;;19.50;33.50;;;;;;5052325;28;20088;-69
2023/01/31 04:21:28;;;;;;;4.20;3.63;;;19.50;33.50;;;;;;5052654;28;20416;-68
2023/01/31 04:23:55;;;;;;;4.00;3.50;;;19.50;33.50;;;;;;5050048;28;20477;-68
2023/01/31 04:26:22;;;;;;;4.15;3.22;;;19.50;33.50;;;;;;5047248;28;20064;-68
2023/01/31 04:28:50;;;;;;;3.67;3.28;;;19.50;33.50;;;;;;5052399;28;20124;-68
2023/01/31 04:31:17;;;;;;;4.55;3.40;;;19.50;33.50;;;;;;5052376;28;20049;-68
2023/01/31 04:33:44;;;;;;;4.20;3.28;;;19.50;33.50;;;;;;5053090;28;20041;-68
2023/01/31 04:36:11;;;;;;;3.47;2.78;;;19.50;33.50;;;;;;5052388;28;20493;-68
2023/01/31 04:38:39;;;;;;;4.00;3.28;;;19.50;33.50;;;;;;5060227;28;20056;-68
2023/01/31 04:41:06;;;;;;;3.22;2.83;;;19.50;33.50;;;;;;5070632;28;20098;-68
2023/01/31 04:43:34;;;;;;;4.50;3.60;;;19.50;33.50;;;;;;5045473;28;20045;-68
2023/01/31 04:46:01;;;;;;;4.53;3.20;;;19.50;33.50;;;;;;5039157;28;20049;-68
2023/01/31 04:48:28;;;;;;;4.28;3.20;;;19.50;33.50;;;;;;5044516;28;20053;-68
2023/01/31 04:50:55;;;;;;;3.10;2.80;;;19.50;33.50;;;;;;5049674;28;20124;-68
2023/01/31 04:53:23;;;;;;;3.83;3.33;;;19.50;33.50;;;;;;5052157;28;20107;-68
2023/01/31 04:55:53;;;;;;;3.55;3.00;;;19.50;33.50;;;;;;5052289;28;20440;-68
2023/01/31 04:58:21;;;;;;;3.10;2.75;;;19.50;33.50;;;;;;5068736;28;20102;-68
2023/01/31 05:00:48;;;;;;;3.75;3.00;;;19.50;33.50;;;;;;5071719;28;20053;-68
2023/01/31 05:03:15;;;;;;;3.53;2.88;;;19.40;33.50;;;;;;5072707;28;20048;-68
2023/01/31 05:05:42;;;;;;;4.57;3.30;;;19.50;33.60;;;;;;5073113;28;20044;-68
2023/01/31 05:08:09;;;;;;;4.10;3.10;;;19.40;33.50;;;;;;5061172;28;20382;-68
2023/01/31 05:10:36;;;;;;;4.55;3.15;;;19.50;33.60;;;;;;5055586;28;20044;-68
2023/01/31 05:13:04;;;;;;;3.88;3.13;;;19.50;33.50;;;;;;5055982;28;20434;-68
2023/01/31 05:15:31;;;;;;;3.35;3.05;;;19.50;33.50;;;;;;5055363;28;20048;-68
2023/01/31 05:18:02;;;;;;;3.33;3.03;;;19.40;33.50;;;;;;5051713;28;20133;-68
2023/01/31 05:20:32;;;;;;;3.35;2.72;;;19.50;33.60;;;;;;5044170;28;20073;-68
2023/01/31 05:22:59;;;;;;;4.40;3.35;;;19.50;33.50;;;;;;5041349;28;20041;-68
2023/01/31 05:25:27;;;;;;;3.92;3.20;;;19.40;33.50;;;;;;5041126;28;20137;-68
2023/01/31 05:27:54;;;;;;;3.33;3.00;;;19.50;33.60;;;;;;5042402;28;20042;-68
2023/01/31 05:30:23;;;;;;;4.03;2.95;;;19.40;33.50;;;;;;5047929;28;20045;-68
2023/01/31 05:32:50;;;;;;;4.78;3.08;;;19.40;33.50;;;;;;5044618;28;20049;-68
2023/01/31 05:35:18;;;;;;;3.25;2.50;;;19.40;33.50;;;;;;5044556;28;20043;-68
2023/01/31 05:37:46;;;;;;;3.25;2.67;;;19.40;33.60;;;;;;5041567;28;20040;-68
2023/01/31 05:40:15;;;;;;;4.00;3.15;;;19.40;33.30;;;;;;5040169;28;20049;-67
2023/01/31 05:42:43;;;;;;;3.35;2.58;;;19.40;33.20;;;;;;5044252;28;20052;-67
2023/01/31 05:45:11;;;;;;;3.20;2.90;;;19.40;33.10;;;;;;5050030;28;20063;-67
2023/01/31 05:47:38;;;;;;;3.22;2.78;;;19.40;33.20;;;;;;5044239;28;20059;-67
2023/01/31 05:50:05;;;;;;;3.42;2.60;;;19.40;33.20;;;;;;5043173;28;20072;-67
2023/01/31 05:52:32;;;;;;;2.95;2.45;;;19.40;33.30;;;;;;5049489;28;20060;-67
2023/01/31 05:54:59;;;;;;;2.58;2.05;;;19.40;33.20;;;;;;5044537;28;20037;-67
2023/01/31 05:57:27;;;;;;;2.83;2.60;;;19.40;33.30;;;;;;5048347;28;20049;-67
2023/01/31 05:59:54;;;;;;;3.05;2.75;;;19.40;33.30;;;;;;5046775;28;20084;-67
2023/01/31 06:02:21;;;;;;;2.58;2.30;;;19.40;33.30;;;;;;5044411;28;20055;-68
2023/01/31 06:04:49;;;;;;;2.60;2.33;;;19.40;33.30;;;;;;5049064;28;20084;-67
2023/01/31 06:07:16;;;;;;;3.40;2.72;;;19.40;33.20;;;;;;5052415;28;20559;-67
2023/01/31 06:09:43;;;;;;;2.72;2.25;;;19.50;33.20;;;;;;5051821;28;20049;-67
2023/01/31 06:12:14;;;;;;;4.20;2.50;;;19.50;33.10;;;;;;5044832;28;20049;-67
2023/01/31 06:14:41;;;;;;;3.05;2.40;;;19.50;33.10;;;;;;5043981;28;20511;-67
2023/01/31 06:17:08;;;;;;;2.38;2.17;;;19.50;33.10;;;;;;5041789;28;20045;-67
2023/01/31 06:19:37;;;;;;;3.25;2.30;;;19.50;33.00;;;;;;5046232;28;20048;-67
2023/01/31 06:22:04;;;;;;;2.88;2.60;;;19.60;33.00;;;;;;5042459;28;20140;-67
2023/01/31 06:24:31;;;;;;;2.53;2.00;;;19.60;33.00;;;;;;5040592;28;20408;-65
2023/01/31 06:26:58;;;;;;;3.55;2.75;;;19.60;33.00;;;;;;5040262;28;20045;-63
2023/01/31 06:29:25;;;;;;;2.83;2.22;;;19.60;33.00;;;;;;5042156;28;20172;-64
2023/01/31 06:31:53;;;;;;;3.72;1.90;;;19.70;33.00;;;;;;5035274;28;20132;-65
2023/01/31 06:34:20;;;;;;;2.55;1.90;;;19.70;33.00;;;;;;5041105;28;20044;-62
2023/01/31 06:36:47;;;;;;;2.30;2.10;;;19.80;33.00;;;;;;5034165;28;20512;-62
2023/01/31 06:39:15;;;;;;;2.25;1.92;;;19.80;33.00;;;;;;5040413;28;20055;-61
2023/01/31 06:41:42;;;;;;;2.10;1.90;;;19.90;33.00;;;;;;5041851;28;20047;-65
2023/01/31 06:44:10;;;;;;;3.15;2.40;;;19.90;33.10;;;;;;5040131;28;20057;-66
2023/01/31 06:46:37;;;;;;;2.42;2.13;;;20.00;33.10;;;;;;5037154;28;20072;-66
2023/01/31 06:49:04;;;;;;;2.60;2.05;;;20.00;33.00;;;;;;5034415;28;20230;-65
2023/01/31 06:51:31;;;;;;;2.25;1.75;;;20.00;33.00;;;;;;5039862;28;20071;-63
2023/01/31 06:53:58;;;;;;;4.40;2.38;;;20.10;33.30;;;;;;5037916;28;20056;-67
2023/01/31 06:56:26;;;;;;;2.90;2.28;;;20.20;33.40;;;;;;5039890;28;20497;-73
2023/01/31 06:58:53;;;;;;;3.85;2.05;;;20.20;33.50;;;;;;5042460;28;20091;-67
2023/01/31 07:01:23;;;;;;;2.70;2.40;;;20.20;33.60;;;;;;5040464;28;20161;-72
2023/01/31 07:03:50;;;;;;;4.70;1.97;;;20.30;33.70;;;;;;5044407;28;21009;-70
2023/01/31 07:06:19;;;;;;;2.67;2.22;;;20.30;33.90;;;;;;5042529;28;20404;-76
2023/01/31 07:08:46;;;;;;;5.78;2.03;;;20.40;34.00;;;;;;5039812;28;20045;-68
2023/01/31 07:11:13;;;;;;;2.30;2.10;;;20.40;34.10;;;;;;5036975;28;20059;-68
2023/01/31 07:13:40;;;;;;;3.15;2.15;;;20.50;34.10;;;;;;5046182;28;20044;-69
2023/01/31 07:16:08;;;;;;;2.88;1.80;;;20.50;34.00;;;;;;5043199;28;20056;-68
2023/01/31 07:18:35;;;;;;;2.00;1.77;;;20.50;33.80;;;;;;5039515;28;20053;-71
2023/01/31 07:21:02;;;;;;;2.67;2.05;;;20.60;33.60;;;;;;5037977;28;20425;-66
2023/01/31 07:23:29;;;;;;;4.35;2.03;;;20.60;33.50;;;;;;5040953;28;20073;-69
2023/01/31 07:25:56;;;;;;;2.75;1.95;;;20.60;33.40;;;;;;5041724;28;20045;-69
2023/01/31 07:28:23;;;;;;;3.65;1.80;;;20.70;33.30;;;;;;5043022;28;20053;-67
2023/01/31 07:30:51;;;;;;;2.35;2.13;;;20.70;33.20;;;;;;5043733;28;20053;-67
2023/01/31 07:33:18;;;;;;;3.00;1.90;;;20.70;33.10;;;;;;5046058;28;20212;-68
2023/01/31 07:35:46;;;;;;;4.18;2.30;;;20.70;33.00;;;;;;5042715;28;20045;-67
2023/01/31 07:38:13;;;;;;;2.50;2.03;;;20.70;33.00;;;;;;5042719;28;20653;-68
2023/01/31 07:40:40;;;;;;;3.17;2.05;;;20.80;33.00;;;;;;5038495;28;20408;-67
2023/01/31 07:43:07;;;;;;;3.05;2.22;;;20.80;33.00;;;;;;5037693;28;20045;-68
2023/01/31 07:45:35;;;;;;;3.03;2.03;;;20.80;33.00;;;;;;5035312;28;20045;-69
2023/01/31 07:48:02;;;;;;;6.60;2.35;;;20.90;32.90;;;;;;5040163;28;20045;-68
2023/01/31 07:50:29;;;;;;;4.82;2.28;;;20.90;32.90;;;;;;5035610;28;20049;-67
2023/01/31 07:52:57;;;;;;;3.10;1.95;;;20.90;33.00;;;;;;5035331;28;20049;-68
2023/01/31 07:55:25;;;;;;;5.57;2.45;;;20.90;33.10;;;;;;5036462;28;20056;-69
2023/01/31 07:57:53;;;;;;;5.65;2.67;;;21.00;33.10;;;;;;5038171;28;20059;-69
2023/01/31 08:03:33;;;;;;;5.18;2.40;;;21.10;33.50;;;;;;5042412;28;20493;-68
2023/01/31 08:06:05;;;;;;;2.50;1.95;;;21.20;33.30;;;;;;5040559;28;20130;-69
2023/01/31 08:08:33;;;;;;;3.42;2.47;;;21.30;33.30;;;;;;5036753;28;20083;-69
2023/01/31 08:11:01;;;;;;;5.13;2.28;;;21.30;33.30;;;;;;5039821;28;20136;-69
2023/01/31 08:13:28;;;;;;;3.17;2.28;;;21.30;33.00;;;;;;5040869;28;20049;-71
2023/01/31 08:15:55;;;;;;;3.55;2.17;;;21.30;32.90;;;;;;5040457;28;20055;-70
2023/01/31 08:18:22;;;;;;;5.10;2.28;;;21.30;32.70;;;;;;5039828;28;20052;-71
2023/01/31 08:20:50;;;;;;;3.90;2.40;;;21.40;32.70;;;;;;5037733;28;20053;-70
2023/01/31 08:23:17;;;;;;;4.20;2.03;;;21.40;32.50;;;;;;5033635;28;20052;-68
2023/01/31 08:25:44;;;;;;;4.90;2.08;;;21.50;32.60;;;;;;5037694;28;20059;-69
2023/01/31 08:28:11;;;;;;;10.77;2.33;;;21.50;32.90;;;;;;5042044;28;20056;-73
2023/01/31 08:30:42;;;;;;;4.40;3.15;;;21.60;33.20;;;;;;5045318;28;20404;-70
2023/01/31 08:33:16;;;;;;;4.28;2.25;;;21.60;33.20;;;;;;5044809;28;20045;-72
2023/01/31 08:35:43;;;;;;;5.97;2.65;;;21.70;33.10;;;;;;5042726;28;20051;-70
2023/01/31 08:38:10;;;;;;;6.40;2.50;;;21.70;33.10;;;;;;5040010;28;20049;-71
2023/01/31 08:40:43;;;;;;;6.38;3.70;;;21.80;33.10;;;;;;5039468;28;20463;-66
2023/01/31 08:43:11;;;;;;;5.97;3.30;;;21.80;33.10;;;;;;5043689;28;20056;-66
2023/01/31 08:45:38;;;;;;;10.02;3.38;;;21.90;33.10;;;;;;5063419;28;20135;-68
2023/01/31 08:48:05;;;;;;;5.93;3.05;;;21.90;33.00;;;;;;5041108;28;20061;-66
2023/01/31 08:50:33;;;;;;;11.50;3.17;;;22.00;32.90;;;;;;5043948;28;20057;-66
2023/01/31 08:53:02;;;;;;;7.93;3.20;;;22.00;32.70;;;;;;5043785;28;20049;-67
2023/01/31 08:55:33;;;;;;;7.50;3.23;;;22.00;32.50;;;;;;5043589;28;20048;-68
2023/01/31 08:58:01;;;;;;;9.00;3.83;;;22.00;32.30;;;;;;5042060;28;20049;-67
2023/01/31 09:00:28;;;;;;;8.43;3.67;;;22.00;32.20;;;;;;5041766;28;20067;-69
2023/01/31 09:02:58;;;;;;;8.10;3.28;;;22.10;32.20;;;;;;5042671;28;20343;-68
2023/01/31 09:05:27;;;;;;;7.43;3.13;;;22.10;32.40;;;;;;5037235;28;20128;-70
2023/01/31 09:07:54;;;;;;;6.38;3.10;;;22.10;32.30;;;;;;5041888;28;20505;-69
2023/01/31 09:10:23;;;;;;;4.88;3.17;;;22.10;32.00;;;;;;5043128;28;20053;-69
2023/01/31 09:12:50;;;;;;;7.43;3.20;;;22.20;31.80;;;;;;5044809;28;20534;-67
2023/01/31 09:15:18;;;;;;;7.60;3.42;;;22.30;31.70;;;;;;5043834;28;20083;-67
2023/01/31 09:17:46;;;;;;;4.35;2.72;;;22.30;31.50;;;;;;5041594;28;20409;-68
2023/01/31 09:20:14;;;;;;;7.40;3.53;;;22.30;31.40;;;;;;5044297;28;20132;-70
2023/01/31 09:22:41;;;;;;;7.13;3.17;;;22.30;31.40;;;;;;5044858;28;20686;-69
2023/01/31 09:25:08;;;;;;;7.80;3.33;;;22.30;31.30;;;;;;5047195;28;20489;-69
2023/01/31 09:27:37;;;;;;;8.05;3.38;;;22.30;31.30;;;;;;5043611;28;20045;-69
2023/01/31 09:30:05;;;;;;;10.15;4.38;;;22.40;31.40;;;;;;5040552;28;20047;-70
2023/01/31 09:32:33;;;;;;;10.48;4.78;;;22.40;31.40;;;;;;5047965;28;20053;-69
2023/01/31 09:35:00;;;;;;;9.20;4.43;;;22.40;31.40;;;;;;5045600;28;20076;-72
2023/01/31 09:37:29;;;;;;;11.00;5.38;;;22.40;31.30;;;;;;5045840;28;20063;-70
2023/01/31 09:39:57;;;;;;;12.02;5.20;;;22.40;31.30;;;;;;5041754;28;20049;-70
2023/01/31 09:42:29;;;;;;;16.00;5.82;;;22.40;31.30;;;;;;5045083;28;20128;-71
2023/01/31 09:45:09;;;;;;;14.32;5.55;;;22.40;31.30;;;;;;5039853;28;20167;-72
2023/01/31 09:47:42;;;;;;;14.20;6.75;;;22.40;31.40;;;;;;5042898;28;20056;-69
2023/01/31 09:50:26;;;;;;;15.07;6.68;;;22.40;31.40;;;;;;5038953;28;20061;-73
2023/01/31 09:52:53;;;;;;;11.88;5.70;;;22.50;31.40;;;;;;5039258;28;20072;-70
2023/01/31 09:55:31;;;;;;;10.20;4.78;;;22.50;31.30;;;;;;5042969;28;20060;-70
2023/01/31 09:58:23;;;;;;;14.88;5.65;;;22.50;31.20;;;;;;5041536;28;20088;-69
2023/01/31 10:01:24;;;;;;;12.43;5.35;;;22.50;31.20;;;;;;5040018;28;20055;-70
2023/01/31 10:04:23;;;;;;;12.45;5.93;;;22.50;31.80;;;;;;5041672;28;20056;-69
2023/01/31 10:07:03;;;;;;;9.93;4.57;;;22.50;31.20;;;;;;5039117;28;20060;-69
2023/01/31 10:09:42;;;;;;;13.27;5.78;;;22.50;31.20;;;;;;5045855;28;20171;-69
2023/01/31 10:12:22;;;;;;;13.07;5.07;;;22.50;31.20;;;;;;5045425;28;20156;-68
2023/01/31 10:14:54;;;;;;;15.35;5.72;;;22.50;31.20;;;;;;5045573;28;20048;-76
2023/01/31 10:17:34;;;;;;;9.95;5.18;;;22.50;31.10;;;;;;5044068;28;20063;-74
2023/01/31 10:20:07;;;;;;;;;;;22.50;31.20;;;;;;5042655;28;20053;-72
2023/01/31 10:22:53;;;;;;;13.13;5.45;;;22.50;31.20;;;;;;5040743;28;19920;-70
2023/01/31 10:25:38;;;;;;;12.27;4.00;;;22.50;31.30;;;;;;5043472;28;20053;-72
2023/01/31 10:28:19;;;;;;;9.57;4.57;;;22.60;31.20;;;;;;5041538;28;20103;-70
2023/01/31 10:30:57;;;;;;;13.95;4.93;;;22.50;31.10;;;;;;5043732;28;20520;-70
2023/01/31 10:33:34;;;;;;;8.95;3.70;;;22.60;31.10;;;;;;5044149;28;20489;-71
2023/01/31 10:36:10;;;;;;;10.65;3.95;;;22.60;31.10;;;;;;5045360;28;20052;-68
2023/01/31 10:38:53;;;;;;;10.48;4.70;;;22.60;31.00;;;;;;5046336;28;20061;-70
2023/01/31 10:41:33;;;;;;;11.63;3.90;;;22.60;30.90;;;;;;5038547;28;20417;-71
2023/01/31 10:44:10;;;;;;;8.80;4.05;;;22.70;30.90;;;;;;5042717;28;20079;-70
2023/01/31 10:46:37;;;;;;;8.52;4.35;;;22.70;30.90;;;;;;5043982;28;20068;-70
2023/01/31 10:49:05;;;;;;;8.50;4.30;;;22.70;30.80;;;;;;5048024;28;20087;-67
2023/01/31 10:52:03;;;;;;;13.32;4.18;;;22.70;30.80;;;;;;5046683;28;20187;-72
2023/01/31 10:54:55;;;;;;;10.00;4.82;;;22.70;30.70;;;;;;5044300;28;20567;-69
2023/01/31 10:57:26;;;;;;;9.02;4.35;;;22.80;30.70;;;;;;5046956;28;20049;-69
2023/01/31 10:59:54;;;;;;;7.82;3.55;;;22.80;30.70;;;;;;5040219;28;20057;-67
2023/01/31 11:02:28;;;;;;;9.98;4.43;;;22.80;30.70;;;;;;5044091;28;20056;-68
2023/01/31 11:04:58;;;;;;;8.20;3.70;;;22.80;30.70;;;;;;5046898;28;20053;-69
2023/01/31 11:07:30;;;;;;;6.75;3.60;;;22.80;30.70;;;;;;5043364;28;20049;-68
2023/01/31 11:09:57;;;;;;;12.63;4.47;;;22.80;30.70;;;;;;5045913;28;20053;-68
2023/01/31 11:12:52;;;;;;;7.40;3.60;;;22.80;30.70;;;;;;5044238;28;20063;-70
2023/01/31 11:15:24;;;;;;;6.90;3.83;;;22.90;30.60;;;;;;5044841;28;20056;-69
2023/01/31 11:17:52;;;;;;;9.35;3.72;;;22.90;30.60;;;;;;5043306;28;20058;-68
2023/01/31 11:20:27;;;;;;;5.90;3.47;;;23.00;30.50;;;;;;5046583;28;20045;-69
2023/01/31 11:22:56;;;;;;;8.00;3.38;;;22.90;30.30;;;;;;5041283;28;20132;-70
2023/01/31 11:25:27;;;;;;;6.78;3.28;;;23.00;30.30;;;;;;5045509;28;20041;-69
2023/01/31 11:27:59;;;;;;;6.93;3.63;;;23.00;30.20;;;;;;5046170;28;20037;-67
2023/01/31 11:30:34;;;;;;;6.05;3.47;;;23.00;30.10;;;;;;5042441;28;20523;-69
2023/01/31 11:33:01;;;;;;;9.60;3.90;;;22.90;30.00;;;;;;5044584;28;20448;-71
2023/01/31 11:35:31;;;;;;;7.38;3.85;;;23.00;30.10;;;;;;5046094;28;20560;-68
2023/01/31 11:38:02;;;;;;;8.38;3.72;;;23.00;30.10;;;;;;5038703;28;20071;-70
2023/01/31 11:40:38;;;;;;;6.75;3.55;;;23.00;30.00;;;;;;5046036;28;20053;-70
2023/01/31 11:43:25;;;;;;;7.00;3.35;;;23.00;30.00;;;;;;5040583;28;20063;-70
2023/01/31 11:45:59;;;;;;;4.95;2.95;;;23.00;30.00;;;;;;5047945;28;20672;-71
2023/01/31 11:48:42;;;;;;;8.18;3.33;;;23.00;30.00;;;;;;5043561;28;20048;-69
2023/01/31 11:51:25;;;;;;;6.72;2.20;;;23.00;30.00;;;;;;5041265;28;20052;-73
2023/01/31 11:53:53;;;;;;;5.20;2.22;;;22.90;27.90;;;;;;5039162;28;20048;-72
2023/01/31 11:56:25;;;;;;;4.47;2.67;;;22.80;28.70;;;;;;5039365;28;21535;-73
2023/01/31 11:59:02;;;;;;;5.75;2.60;;;22.80;29.00;;;;;;5038964;28;20049;-72
2023/01/31 12:01:30;;;;;;;6.18;2.78;;;22.80;29.20;;;;;;5040722;28;20110;-69
2023/01/31 12:04:01;;;;;;;8.23;4.10;;;22.80;29.40;;;;;;5040243;28;20135;-70
2023/01/31 12:06:34;;;;;;;9.43;3.35;;;22.80;29.50;;;;;;5039475;28;20045;-67
2023/01/31 12:09:04;;;;;;;10.98;4.55;;;22.80;29.60;;;;;;5041488;28;20053;-67
2023/01/31 12:11:34;;;;;;;13.02;4.45;;;22.80;29.70;;;;;;5040091;28;20037;-71
2023/01/31 12:14:18;;;;;;;8.73;3.90;;;22.90;29.80;;;;;;5042513;28;20067;-69
2023/01/31 12:16:48;;;;;;;13.70;3.72;;;22.90;29.90;;;;;;5042276;28;20050;-69
2023/01/31 12:19:31;;;;;;;10.40;4.07;;;22.90;30.00;;;;;;5038285;28;20132;-66
2023/01/31 12:22:14;;;;;;;9.73;3.95;;;23.00;30.00;;;;;;5044651;28;20057;-68
2023/01/31 12:24:57;;;;;;;7.82;3.60;;;23.00;30.00;;;;;;5044835;28;20489;-64
2023/01/31 12:27:55;;;;;;;9.98;3.35;;;23.00;30.00;;;;;;5049605;28;20044;-64
2023/01/31 12:30:53;;;;;;;9.23;3.08;;;23.00;30.00;;;;;;5048295;28;20048;-67
2023/01/31 12:33:52;;;;;;;9.98;3.40;;;23.10;30.00;;;;;;5042219;28;20337;-67
2023/01/31 12:36:51;;;;;;;9.50;3.25;;;23.10;30.00;;;;;;5043350;28;20059;-67
2023/01/31 12:39:46;;;;;;;10.87;3.67;;;23.10;30.00;;;;;;5048625;28;20127;-66
2023/01/31 12:42:49;;;;;;;9.93;4.43;;;23.10;30.00;;;;;;5045821;28;20321;-67
2023/01/31 12:45:50;;;;;;;13.95;3.70;;;23.20;30.00;;;;;;5044361;28;20052;-67
2023/01/31 12:48:47;;;;;;;6.93;2.97;;;23.10;30.00;;;;;;5045703;28;20136;-66
2023/01/31 12:51:38;;;;;;;8.68;3.47;;;23.10;30.00;;;;;;5037913;28;20521;-66
2023/01/31 12:54:29;;;;;;;10.63;4.32;;;23.10;30.00;;;;;;5043698;28;20049;-70
2023/01/31 12:57:29;;;;;;;9.50;4.47;;;23.10;30.40;;;;;;5042957;28;20079;-68
2023/01/31 13:00:17;;;;;;;9.33;4.80;;;23.10;30.60;;;;;;5060973;28;20517;-66
2023/01/31 13:03:24;;;;;;;11.93;5.55;;;23.10;30.70;;;;;;5044877;28;20302;-66
2023/01/31 13:06:00;;;;;;;14.52;5.43;;;23.10;30.60;;;;;;5043439;28;20234;-64
2023/01/31 13:08:31;;;;;;;14.88;5.65;;;23.10;30.60;;;;;;5046291;28;20132;-65
2023/01/31 13:11:05;;;;;;;23.35;7.05;;;23.10;30.50;;;;;;5044028;28;20181;-65
2023/01/31 13:13:40;;;;;;;18.20;6.68;;;23.10;30.50;;;;;;5043234;28;20052;-64
2023/01/31 13:16:28;;;;;;;16.45;6.85;;;23.10;30.60;;;;;;5046947;28;20689;-64
2023/01/31 13:19:01;;;;;;;15.57;5.80;;;23.10;30.50;;;;;;5043923;28;20171;-64
2023/01/31 13:21:32;;;;;;;19.85;6.65;;;23.10;30.50;;;;;;5041807;28;20389;-65
2023/01/31 13:24:11;;;;;;;14.50;5.53;;;23.00;30.40;;;;;;5044477;28;20734;-64
2023/01/31 13:27:16;;;;;;;12.38;5.70;;;23.00;30.40;;;;;;5045957;28;20052;-65
2023/01/31 13:29:51;;;;;;;12.73;5.55;;;23.00;30.50;;;;;;5044366;28;20045;-66